Hauptseite
METAR-TAF:

METAR-TAF

Flughäfen :

Flughafen Straßburg

Straßburg, Frankreich

Breite: 48-33N, Länge: 007-38E, Höhe: 153 m

Beobachtung

Neuester Wetterbericht von vor 33 Minuten, um 19:00 UTC
Wind 5 kt aus Süd, variierte zwischen Südost und Süd
Temperatur 14°C
Luftfeuchtigkeit 72%
Luftdruck 1021 hPa
Sichtweite 10 km oder mehr
keine Wolken unter 1500 m und keine Kumulonimbus oder Gewitterwolken

METAR: LFST 191900Z AUTO 17005KT 130V190 CAVOK 14/09 Q1021 NOSIG

Zeit: 21:33 (19:33 UTC)

Prognose

Neuester Wetterbericht von vor 2 Stunden und 33 Minuten, um 17:00 UTC
Gültige Prognose vom 19 um 18 UTC bis 20 um 18 UTC
Wind 8 kt aus Süd
Sichtweite 10 km oder mehr
keine Wolken unter 1500 m und keine Kumulonimbus oder Gewitterwolken
Wahrscheinlichkeit 40% :
Zeitweise
vom 20 um 10 UTC bis 20 um 18 UTC
Wind 12 kt aus Süd/Südwest, Böen bis zu 22 kt

TAF: LFST 191700Z 1918/2018 18008KT CAVOK PROB40 TEMPO 2010/2018 20012G22KT

Wetterbeobachtungen und Prognosen von mehr als 4000 Flughäfen (METAR und TAF Bericht).

Die verfügbaren Stationen werden durch gelbe und rote Markierungen auf der Karte dargestellt.

Führen Sie die Maus auf sie, um den Namen der Station zu sehen.

Darauf klicken, um die Beobachtung von Wetterbeobachtungen und Prognosen zu sehen.

Um die Karte zu ändern : klicken Sie auf den grünen Tasten mit einem schwarzen Kreuz Zum Vergrößern, auf den grünen Button mit einem Gedankenstrich zu verkleinern, oder auf die grünen Pfeile für benachbarte Karten.


METAR-TAF: